createdAt,value
2022-09-06T00:00:18.059Z,6.48
2022-09-06T00:02:55.487Z,6.45
2022-09-06T00:05:22.403Z,6.51
2022-09-06T00:07:49.660Z,6.55
2022-09-06T00:10:16.542Z,6.56
2022-09-06T00:12:43.338Z,6.56
2022-09-06T00:15:10.919Z,6.56
2022-09-06T00:17:37.718Z,6.55
2022-09-06T00:20:05.516Z,6.54
2022-09-06T00:22:32.559Z,6.51
2022-09-06T00:24:59.400Z,6.49
2022-09-06T00:27:26.395Z,6.46
2022-09-06T00:29:53.416Z,6.40
2022-09-06T00:32:20.202Z,6.32
2022-09-06T00:34:47.000Z,6.24
2022-09-06T00:37:14.164Z,6.17
2022-09-06T00:39:41.108Z,6.14
2022-09-06T00:42:10.008Z,6.10
2022-09-06T00:44:37.967Z,6.08
2022-09-06T00:47:06.300Z,6.03
2022-09-06T00:49:41.322Z,5.98
2022-09-06T00:52:12.107Z,5.91
2022-09-06T00:54:39.984Z,5.89
2022-09-06T00:57:07.305Z,5.87
2022-09-06T00:59:37.628Z,5.87
2022-09-06T01:02:05.666Z,5.84
2022-09-06T01:04:33.380Z,5.81
2022-09-06T01:07:06.718Z,5.75
2022-09-06T01:09:48.429Z,5.69
2022-09-06T01:12:58.683Z,5.64
2022-09-06T01:15:28.308Z,5.58
2022-09-06T01:18:32.025Z,5.46
2022-09-06T01:21:10.494Z,5.34
2022-09-06T01:24:34.816Z,5.23
2022-09-06T01:27:25.963Z,5.19
2022-09-06T01:30:04.140Z,5.16
2022-09-06T01:32:39.212Z,5.11
2022-09-06T01:35:20.526Z,5.10
2022-09-06T01:37:48.207Z,5.08
2022-09-06T01:40:15.500Z,5.03
2022-09-06T01:42:45.099Z,4.97
2022-09-06T01:45:16.810Z,4.97
2022-09-06T01:48:08.203Z,4.92
2022-09-06T01:50:47.710Z,4.88
2022-09-06T01:53:42.395Z,4.88
2022-09-06T01:56:31.736Z,4.86
2022-09-06T01:59:01.455Z,4.82
2022-09-06T02:01:37.053Z,4.79
2022-09-06T02:04:12.756Z,4.76
2022-09-06T02:06:45.186Z,4.75
2022-09-06T02:09:19.866Z,4.71
2022-09-06T02:11:51.671Z,4.69
2022-09-06T02:14:23.473Z,4.70
2022-09-06T02:16:53.862Z,4.68
2022-09-06T02:19:29.940Z,4.65
2022-09-06T02:21:58.374Z,4.65
2022-09-06T02:24:30.684Z,4.62
2022-09-06T02:26:57.721Z,4.59
2022-09-06T02:29:24.741Z,4.56
2022-09-06T02:32:01.780Z,4.53
2022-09-06T02:34:29.189Z,4.49
2022-09-06T02:36:56.424Z,4.47
2022-09-06T02:39:23.307Z,4.45
2022-09-06T02:41:50.159Z,4.41
2022-09-06T02:44:17.227Z,4.39
2022-09-06T02:46:44.023Z,4.36
2022-09-06T02:49:10.842Z,4.32
2022-09-06T02:51:39.545Z,4.30
2022-09-06T02:54:06.692Z,4.26
2022-09-06T02:56:34.550Z,4.24
2022-09-06T02:59:01.548Z,4.22
2022-09-06T03:01:28.359Z,4.20
2022-09-06T03:03:56.108Z,4.18
2022-09-06T03:06:23.383Z,4.18
2022-09-06T03:08:50.371Z,4.18
2022-09-06T03:11:17.614Z,4.10
2022-09-06T03:13:44.632Z,4.07
2022-09-06T03:16:11.673Z,4.07
2022-09-06T03:18:38.508Z,4.05
2022-09-06T03:21:05.728Z,4.01
2022-09-06T03:23:32.532Z,3.97
2022-09-06T03:25:59.334Z,3.93
2022-09-06T03:28:26.996Z,3.90
2022-09-06T03:30:54.037Z,3.85
2022-09-06T03:33:21.214Z,3.83
2022-09-06T03:35:54.394Z,3.79
2022-09-06T03:38:22.220Z,3.77
2022-09-06T03:40:49.838Z,3.76
2022-09-06T03:43:17.892Z,3.77
2022-09-06T03:45:47.003Z,3.75
2022-09-06T03:48:14.809Z,3.74
2022-09-06T03:50:49.660Z,3.73
2022-09-06T03:53:17.928Z,3.73
2022-09-06T03:55:49.551Z,3.69
2022-09-06T03:58:17.775Z,3.70
2022-09-06T04:00:45.313Z,3.71
2022-09-06T04:03:12.917Z,3.71
2022-09-06T04:05:39.804Z,3.71
2022-09-06T04:08:06.885Z,3.70
2022-09-06T04:10:34.019Z,3.74
2022-09-06T04:13:00.866Z,3.78
2022-09-06T04:15:27.894Z,3.84
2022-09-06T04:17:54.724Z,3.84
2022-09-06T04:20:21.734Z,3.84
2022-09-06T04:22:48.726Z,3.84
2022-09-06T04:25:15.838Z,3.83
2022-09-06T04:27:42.626Z,3.90
2022-09-06T04:30:10.024Z,4.00
2022-09-06T04:32:36.960Z,4.11
2022-09-06T04:35:04.088Z,4.20
2022-09-06T04:37:31.103Z,4.35
2022-09-06T04:39:57.980Z,4.64
2022-09-06T04:42:24.854Z,5.07
2022-09-06T04:44:51.902Z,5.61
2022-09-06T04:47:19.368Z,6.20
2022-09-06T04:49:49.480Z,6.75
2022-09-06T04:52:17.010Z,7.24
2022-09-06T04:54:43.936Z,7.81
2022-09-06T04:57:10.834Z,8.37
2022-09-06T04:59:37.943Z,8.95
2022-09-06T05:02:04.935Z,9.53
2022-09-06T05:04:31.775Z,10.24
2022-09-06T05:07:06.629Z,10.86
2022-09-06T05:09:33.922Z,10.98
2022-09-06T05:12:01.752Z,11.02
2022-09-06T05:14:29.095Z,11.22
2022-09-06T05:16:56.015Z,11.47
2022-09-06T05:19:23.252Z,11.72
2022-09-06T05:21:51.903Z,12.12
2022-09-06T05:24:19.023Z,12.61
2022-09-06T05:26:45.993Z,13.13
2022-09-06T05:29:13.065Z,13.60
2022-09-06T05:31:39.963Z,14.12
2022-09-06T05:34:06.987Z,14.82
2022-09-06T05:36:34.144Z,15.28
2022-09-06T05:39:00.967Z,15.97
2022-09-06T05:41:28.082Z,16.68
2022-09-06T05:43:55.219Z,17.39
2022-09-06T05:46:22.127Z,17.97
2022-09-06T05:49:04.855Z,18.34
2022-09-06T05:51:32.877Z,18.85
2022-09-06T05:54:00.070Z,19.28
2022-09-06T05:56:26.852Z,19.23
2022-09-06T05:58:53.799Z,19.44
2022-09-06T06:01:26.899Z,19.52
2022-09-06T06:03:55.297Z,19.66
2022-09-06T06:06:23.395Z,19.74
2022-09-06T06:08:50.239Z,20.06
2022-09-06T06:11:17.739Z,20.54
2022-09-06T06:13:44.939Z,20.87
2022-09-06T06:16:14.052Z,21.35
2022-09-06T06:18:41.039Z,21.82
2022-09-06T06:21:22.612Z,22.08
2022-09-06T06:23:52.362Z,22.46
2022-09-06T06:26:20.126Z,22.94
2022-09-06T06:28:47.143Z,23.35
2022-09-06T06:31:15.343Z,23.75
2022-09-06T06:33:42.716Z,24.31
2022-09-06T06:36:12.228Z,24.65
2022-09-06T06:38:40.653Z,24.90
2022-09-06T06:41:09.555Z,25.20
2022-09-06T06:43:37.881Z,25.60
2022-09-06T06:46:13.479Z,25.83
2022-09-06T06:48:41.999Z,26.22
2022-09-06T06:51:13.314Z,25.96
2022-09-06T06:53:40.206Z,26.10
2022-09-06T06:56:19.339Z,26.42
2022-09-06T06:58:48.547Z,26.95
2022-09-06T07:01:16.792Z,27.22
2022-09-06T07:03:43.772Z,27.71
2022-09-06T07:06:10.995Z,28.22
2022-09-06T07:08:38.621Z,28.60
2022-09-06T07:11:07.298Z,28.69
2022-09-06T07:13:34.363Z,28.53
2022-09-06T07:16:20.260Z,28.87
2022-09-06T07:18:50.298Z,28.48
2022-09-06T07:24:10.642Z,27.08
2022-09-06T07:26:40.246Z,26.92
2022-09-06T07:29:08.157Z,26.71
2022-09-06T07:34:25.214Z,26.16
2022-09-06T07:36:56.369Z,26.00
2022-09-06T07:39:23.708Z,25.89
2022-09-06T07:41:50.797Z,25.72
2022-09-06T07:44:17.578Z,25.72
2022-09-06T07:46:44.836Z,25.45
2022-09-06T07:49:11.769Z,25.56
2022-09-06T07:51:38.553Z,25.81
2022-09-06T07:54:29.232Z,25.93
2022-09-06T07:56:53.816Z,25.84
2022-09-06T07:59:20.890Z,25.81
2022-09-06T08:01:48.361Z,25.79
2022-09-06T08:04:15.706Z,26.43
2022-09-06T08:09:33.495Z,27.41
2022-09-06T08:12:06.720Z,27.15
2022-09-06T08:14:34.340Z,27.08
2022-09-06T08:17:02.120Z,27.47
2022-09-06T08:19:28.976Z,27.89
2022-09-06T08:21:56.186Z,28.34
2022-09-06T08:24:23.384Z,28.55
2022-09-06T08:26:50.374Z,28.16
2022-09-06T08:29:17.401Z,28.12
2022-09-06T08:31:45.289Z,27.99
2022-09-06T08:34:12.907Z,27.88
2022-09-06T08:36:40.440Z,28.14
2022-09-06T08:39:10.048Z,28.31
2022-09-06T08:41:58.592Z,28.25
2022-09-06T08:44:55.206Z,28.32
2022-09-06T08:47:22.965Z,28.53
2022-09-06T08:50:07.501Z,28.35
2022-09-06T08:53:06.505Z,28.40
2022-09-06T08:55:52.948Z,27.19
2022-09-06T08:58:37.726Z,26.64
2022-09-06T09:01:14.433Z,26.66
2022-09-06T09:03:43.394Z,27.14
2022-09-06T09:06:10.888Z,27.52
2022-09-06T09:09:03.755Z,28.03
2022-09-06T09:11:33.603Z,28.12
2022-09-06T09:14:04.194Z,28.28
2022-09-06T09:16:31.409Z,28.36
2022-09-06T09:19:02.520Z,28.32
2022-09-06T09:21:33.533Z,28.55
2022-09-06T09:24:07.019Z,28.90
2022-09-06T09:26:51.296Z,28.67
2022-09-06T09:29:18.506Z,28.47
2022-09-06T09:31:58.510Z,28.26
2022-09-06T09:34:39.924Z,27.69
2022-09-06T09:40:33.474Z,27.13
2022-09-06T09:43:15.085Z,27.39
2022-09-06T09:45:43.369Z,27.22
2022-09-06T09:48:27.143Z,27.24
2022-09-06T09:50:56.125Z,28.00
2022-09-06T09:53:24.349Z,28.04
2022-09-06T09:55:59.006Z,27.96
2022-09-06T09:58:36.284Z,27.68
2022-09-06T10:01:23.086Z,27.69
2022-09-06T10:09:36.298Z,29.01
2022-09-06T10:12:03.533Z,29.31
2022-09-06T10:14:42.142Z,29.54
2022-09-06T10:17:17.628Z,29.90
2022-09-06T10:19:45.784Z,30.44
2022-09-06T10:22:25.589Z,30.83
2022-09-06T10:25:19.247Z,30.56
2022-09-06T10:28:11.645Z,30.50
2022-09-06T10:31:12.960Z,30.95
2022-09-06T10:34:12.336Z,31.69
2022-09-06T10:36:45.595Z,31.99
2022-09-06T10:39:30.944Z,31.65
2022-09-06T10:42:02.578Z,31.48
2022-09-06T10:44:45.809Z,30.85
2022-09-06T10:47:14.961Z,29.91
2022-09-06T10:49:45.628Z,29.75
2022-09-06T10:52:19.024Z,30.16
2022-09-06T10:54:47.418Z,30.74
2022-09-06T11:00:14.916Z,31.61
2022-09-06T11:05:54.572Z,30.89
2022-09-06T11:08:51.172Z,31.35
2022-09-06T11:12:16.132Z,31.07
2022-09-06T11:14:43.020Z,30.99
2022-09-06T11:17:41.120Z,30.94
2022-09-06T11:20:08.087Z,30.84
2022-09-06T11:22:53.424Z,30.96
2022-09-06T11:25:54.506Z,30.22
2022-09-06T11:28:52.676Z,29.68
2022-09-06T11:34:22.693Z,28.94
2022-09-06T11:36:56.165Z,28.91
2022-09-06T11:42:49.366Z,29.29
2022-09-06T11:45:38.698Z,29.56
2022-09-06T11:48:23.626Z,29.76
2022-09-06T11:50:53.663Z,30.22
2022-09-06T11:53:33.971Z,29.66
2022-09-06T11:56:00.894Z,29.52
2022-09-06T11:58:51.318Z,28.95
2022-09-06T12:01:18.955Z,29.03
2022-09-06T12:04:05.479Z,28.77
2022-09-06T12:06:40.083Z,28.52
2022-09-06T12:09:28.563Z,28.28
2022-09-06T12:11:56.717Z,27.85
2022-09-06T12:14:42.591Z,28.02
2022-09-06T12:17:09.945Z,27.89
2022-09-06T12:19:54.893Z,27.53
2022-09-06T12:22:27.697Z,27.45
2022-09-06T12:25:17.054Z,27.32
2022-09-06T12:27:56.374Z,27.37
2022-09-06T12:30:38.860Z,27.32
2022-09-06T12:33:24.663Z,27.24
2022-09-06T12:38:25.913Z,27.74
2022-09-06T12:40:58.450Z,28.33
2022-09-06T12:43:27.016Z,28.30
2022-09-06T12:45:54.053Z,28.13
2022-09-06T12:48:35.365Z,28.36
2022-09-06T12:51:06.906Z,28.65
2022-09-06T12:53:35.084Z,28.89
2022-09-06T12:56:04.819Z,28.60
2022-09-06T12:58:32.124Z,28.05
2022-09-06T13:01:07.790Z,27.54
2022-09-06T13:03:45.444Z,27.18
2022-09-06T13:06:24.545Z,26.83
2022-09-06T13:08:56.107Z,26.76
2022-09-06T13:11:28.234Z,26.82
2022-09-06T13:13:55.851Z,26.42
2022-09-06T13:16:26.058Z,25.85
2022-09-06T13:18:53.424Z,25.49
2022-09-06T13:21:35.674Z,25.09
2022-09-06T13:24:19.685Z,24.05
2022-09-06T13:26:46.810Z,23.33
2022-09-06T13:29:16.440Z,22.91
2022-09-06T13:31:47.582Z,22.68
2022-09-06T13:34:28.330Z,22.44
2022-09-06T13:37:01.527Z,22.34
2022-09-06T13:39:33.439Z,22.38
2022-09-06T13:42:08.803Z,22.50
2022-09-06T13:44:38.147Z,22.60
2022-09-06T13:47:05.572Z,22.57
2022-09-06T13:49:33.928Z,22.42
2022-09-06T13:52:03.890Z,22.24
2022-09-06T13:54:33.460Z,21.90
2022-09-06T13:57:01.853Z,21.72
2022-09-06T13:59:30.416Z,21.66
2022-09-06T14:02:09.958Z,21.71
2022-09-06T14:04:37.158Z,21.89
2022-09-06T14:07:05.375Z,21.97
2022-09-06T14:09:32.720Z,21.96
2022-09-06T14:12:00.846Z,22.03
2022-09-06T14:14:27.680Z,22.06
2022-09-06T14:16:54.488Z,21.97
2022-09-06T14:19:21.883Z,21.87
2022-09-06T14:21:48.918Z,21.78
2022-09-06T14:24:15.790Z,21.69
2022-09-06T14:26:42.886Z,21.68
2022-09-06T14:29:09.748Z,21.58
2022-09-06T14:31:36.629Z,21.52
2022-09-06T14:34:04.223Z,21.45
2022-09-06T14:36:33.211Z,21.37
2022-09-06T14:39:01.565Z,21.29
2022-09-06T14:41:28.848Z,21.21
2022-09-06T14:43:57.841Z,21.22
2022-09-06T14:46:27.446Z,21.18
2022-09-06T14:49:10.071Z,21.10
2022-09-06T14:51:38.622Z,20.95
2022-09-06T14:54:11.714Z,20.89
2022-09-06T14:56:40.477Z,20.91
2022-09-06T14:59:09.237Z,20.89
2022-09-06T15:01:38.599Z,20.90
2022-09-06T15:04:07.995Z,20.86
2022-09-06T15:06:37.082Z,20.75
2022-09-06T15:09:04.669Z,20.60
2022-09-06T15:11:53.612Z,20.51
2022-09-06T15:14:22.681Z,20.31
2022-09-06T15:16:55.980Z,20.28
2022-09-06T15:19:28.089Z,20.26
2022-09-06T15:21:56.307Z,20.22
2022-09-06T15:24:23.607Z,20.22
2022-09-06T15:26:50.669Z,20.18
2022-09-06T15:29:17.718Z,20.22
2022-09-06T15:31:50.186Z,20.30
2022-09-06T15:34:22.606Z,20.25
2022-09-06T15:36:50.613Z,20.20
2022-09-06T15:39:18.027Z,20.14
2022-09-06T15:41:45.113Z,20.08
2022-09-06T15:44:17.037Z,20.04
2022-09-06T15:46:50.150Z,19.96
2022-09-06T15:49:27.474Z,19.93
2022-09-06T15:51:56.656Z,19.91
2022-09-06T15:54:42.402Z,19.82
2022-09-06T15:57:09.584Z,19.76
2022-09-06T15:59:36.657Z,19.67
2022-09-06T16:02:03.680Z,19.63
2022-09-06T16:04:30.768Z,19.59
2022-09-06T16:06:58.751Z,19.50
2022-09-06T16:09:25.816Z,19.43
2022-09-06T16:11:52.817Z,19.29
2022-09-06T16:14:20.335Z,19.17
2022-09-06T16:16:47.561Z,19.04
2022-09-06T16:19:14.418Z,18.94
2022-09-06T16:21:43.261Z,18.85
2022-09-06T16:24:13.328Z,18.75
2022-09-06T16:26:42.905Z,18.66
2022-09-06T16:29:11.804Z,18.54
2022-09-06T16:31:40.488Z,18.40
2022-09-06T16:34:12.040Z,18.26
2022-09-06T16:36:39.398Z,18.14
2022-09-06T16:39:07.224Z,18.02
2022-09-06T16:41:37.075Z,17.91
2022-09-06T16:44:04.351Z,17.78
2022-09-06T16:46:31.321Z,17.63
2022-09-06T16:49:04.499Z,17.50
2022-09-06T16:51:32.058Z,17.35
2022-09-06T16:54:00.580Z,17.21
2022-09-06T16:56:33.321Z,17.06
2022-09-06T16:59:02.647Z,16.92
2022-09-06T17:01:31.318Z,16.77
2022-09-06T17:04:00.906Z,16.63
2022-09-06T17:06:29.290Z,16.49
2022-09-06T17:09:00.124Z,16.35
2022-09-06T17:11:28.510Z,16.15
2022-09-06T17:13:56.715Z,15.89
2022-09-06T17:16:43.420Z,15.66
2022-09-06T17:19:11.192Z,15.43
2022-09-06T17:21:39.308Z,15.27
2022-09-06T17:24:07.828Z,15.11
2022-09-06T17:26:37.937Z,14.88
2022-09-06T17:29:05.482Z,14.62
2022-09-06T17:31:32.431Z,14.41
2022-09-06T17:34:02.344Z,14.25
2022-09-06T17:36:31.786Z,14.09
2022-09-06T17:39:01.922Z,13.94
2022-09-06T17:41:34.786Z,13.81
2022-09-06T17:44:01.673Z,13.67
2022-09-06T17:46:29.206Z,13.48
2022-09-06T17:48:56.951Z,13.36
2022-09-06T17:51:24.856Z,13.24
2022-09-06T17:53:53.019Z,13.09
2022-09-06T17:56:20.780Z,12.92
2022-09-06T17:58:59.417Z,12.78
2022-09-06T18:01:29.705Z,12.65
2022-09-06T18:03:57.321Z,12.56
2022-09-06T18:06:25.885Z,12.47
2022-09-06T18:08:55.263Z,12.33
2022-09-06T18:11:27.358Z,12.19
2022-09-06T18:14:05.180Z,12.08
2022-09-06T18:16:34.055Z,11.99
2022-09-06T18:19:04.634Z,11.91
2022-09-06T18:21:33.861Z,11.84
2022-09-06T18:24:00.816Z,11.55
2022-09-06T18:26:27.943Z,11.38
2022-09-06T18:28:54.846Z,11.19
2022-09-06T18:31:24.178Z,11.11
2022-09-06T18:33:51.628Z,11.06
2022-09-06T18:36:19.719Z,11.02
2022-09-06T18:38:46.846Z,10.93
2022-09-06T18:41:34.305Z,10.88
2022-09-06T18:44:02.971Z,10.79
2022-09-06T18:46:31.928Z,10.72
2022-09-06T18:48:59.275Z,10.64
2022-09-06T18:51:26.712Z,10.58
2022-09-06T18:53:56.258Z,10.46
2022-09-06T18:56:23.524Z,10.34
2022-09-06T18:58:51.939Z,10.28
2022-09-06T19:01:20.931Z,10.17
2022-09-06T19:03:47.839Z,10.10
2022-09-06T19:06:17.057Z,10.06
2022-09-06T19:08:44.010Z,9.88
2022-09-06T19:11:16.571Z,9.77
2022-09-06T19:13:45.470Z,9.72
2022-09-06T19:16:14.170Z,9.66
2022-09-06T19:18:41.910Z,9.61
2022-09-06T19:21:14.618Z,9.57
2022-09-06T19:23:44.906Z,9.53
2022-09-06T19:26:14.645Z,9.49
2022-09-06T19:28:41.615Z,9.44
2022-09-06T19:31:15.941Z,9.38
2022-09-06T19:33:44.498Z,9.33
2022-09-06T19:36:12.612Z,9.28
2022-09-06T19:39:02.519Z,9.23
2022-09-06T19:41:28.848Z,9.19
2022-09-06T19:43:57.254Z,9.12
2022-09-06T19:46:25.105Z,9.07
2022-09-06T19:48:54.235Z,9.01
2022-09-06T19:51:21.855Z,8.94
2022-09-06T19:53:54.168Z,8.88
2022-09-06T19:56:23.723Z,8.84
2022-09-06T19:58:53.792Z,8.75
2022-09-06T20:01:20.998Z,8.72
2022-09-06T20:03:48.444Z,8.70
2022-09-06T20:06:15.655Z,8.66
2022-09-06T20:08:42.650Z,8.62
2022-09-06T20:11:12.729Z,8.61
2022-09-06T20:13:40.518Z,8.55
2022-09-06T20:16:09.583Z,8.45
2022-09-06T20:18:37.846Z,8.33
2022-09-06T20:21:06.004Z,8.31
2022-09-06T20:23:34.547Z,8.29
2022-09-06T20:26:07.265Z,8.27
2022-09-06T20:28:35.023Z,8.26
2022-09-06T20:31:04.561Z,8.20
2022-09-06T20:33:32.419Z,8.14
2022-09-06T20:36:04.928Z,8.10
2022-09-06T20:38:33.894Z,8.05
2022-09-06T20:41:10.064Z,7.99
2022-09-06T20:43:38.669Z,7.97
2022-09-06T20:46:17.492Z,7.96
2022-09-06T20:48:45.830Z,7.95
2022-09-06T20:51:15.987Z,7.93
2022-09-06T20:53:42.828Z,7.91
2022-09-06T20:56:16.045Z,7.88
2022-09-06T20:58:47.429Z,7.86
2022-09-06T21:01:16.648Z,7.85
2022-09-06T21:03:43.477Z,7.78
2022-09-06T21:06:12.390Z,7.72
2022-09-06T21:08:42.647Z,7.71
2022-09-06T21:11:10.393Z,7.69
2022-09-06T21:13:38.095Z,7.68
2022-09-06T21:16:06.382Z,7.67
2022-09-06T21:18:34.704Z,7.65
2022-09-06T21:21:04.783Z,7.65
2022-09-06T21:23:35.050Z,7.64
2022-09-06T21:26:04.811Z,7.63
2022-09-06T21:28:34.150Z,7.61
2022-09-06T21:31:15.991Z,7.61
2022-09-06T21:33:48.389Z,7.63
2022-09-06T21:36:17.460Z,7.64
2022-09-06T21:38:46.670Z,7.65
2022-09-06T21:41:15.089Z,7.65
2022-09-06T21:43:42.957Z,7.65
2022-09-06T21:46:15.372Z,7.66
2022-09-06T21:48:44.431Z,7.65
2022-09-06T21:51:16.200Z,7.63
2022-09-06T21:53:45.887Z,7.61
2022-09-06T21:56:13.366Z,7.61
2022-09-06T21:58:40.587Z,7.61
2022-09-06T22:01:08.864Z,7.62
2022-09-06T22:03:39.131Z,7.63
2022-09-06T22:06:11.611Z,7.64
2022-09-06T22:08:39.109Z,7.65
2022-09-06T22:11:10.085Z,7.64
2022-09-06T22:13:37.261Z,7.61
2022-09-06T22:16:07.812Z,7.59
2022-09-06T22:18:35.972Z,7.56
2022-09-06T22:21:05.679Z,7.54
2022-09-06T22:23:33.369Z,7.50
2022-09-06T22:26:12.083Z,7.49
2022-09-06T22:28:40.380Z,7.46
2022-09-06T22:31:08.461Z,7.45
2022-09-06T22:33:35.746Z,7.43
2022-09-06T22:36:03.851Z,7.41
2022-09-06T22:38:31.253Z,7.38
2022-09-06T22:40:58.518Z,7.36
2022-09-06T22:43:26.418Z,7.34
2022-09-06T22:45:53.357Z,7.32
2022-09-06T22:48:20.590Z,7.29
2022-09-06T22:50:47.693Z,7.25
2022-09-06T22:53:14.656Z,7.21
2022-09-06T22:55:47.265Z,7.21
2022-09-06T22:58:14.411Z,7.19
2022-09-06T23:00:41.355Z,7.15
2022-09-06T23:03:08.269Z,7.13
2022-09-06T23:05:35.715Z,7.14
2022-09-06T23:08:03.699Z,7.13
2022-09-06T23:10:31.462Z,7.11
2022-09-06T23:12:59.007Z,7.10
2022-09-06T23:15:26.127Z,7.05
2022-09-06T23:17:53.136Z,7.01
2022-09-06T23:20:20.164Z,6.99
2022-09-06T23:22:48.092Z,6.92
2022-09-06T23:25:15.040Z,6.82
2022-09-06T23:27:42.205Z,6.74
2022-09-06T23:30:10.035Z,6.67
2022-09-06T23:32:38.096Z,6.62
2022-09-06T23:35:05.940Z,6.59
2022-09-06T23:37:32.848Z,6.55
2022-09-06T23:39:59.717Z,6.51
2022-09-06T23:42:26.956Z,6.47
2022-09-06T23:44:57.616Z,6.43
2022-09-06T23:47:24.842Z,6.36
2022-09-06T23:49:51.993Z,6.30
2022-09-06T23:52:19.042Z,6.24
2022-09-06T23:54:45.899Z,6.20
2022-09-06T23:57:13.028Z,6.15
2022-09-06T23:59:39.922Z,6.07
